Time;durP1;ratioP1;P1;durP2;ratioP2;P2;SDS_P1;SDS_P2;PMS_P1;PMS_P2;Temp;Humidity;BMP_temperature;BMP_pressure;BME280_temperature;BME280_humidity;BME280_pressure;Samples;Min_cycle;Max_cycle;Signal;HPM_P1;HPM_P2
2022/07/26 00:02:24;;;;;;;3.70;3.40;;;18.80;71.20;;;;;;5154704;27;20475;-70
2022/07/26 00:04:50;;;;;;;4.32;3.40;;;18.70;71.60;;;;;;5154924;27;20019;-70
2022/07/26 00:07:15;;;;;;;5.85;3.70;;;18.60;71.80;;;;;;5153098;27;20079;-78
2022/07/26 00:09:42;;;;;;;3.17;2.90;;;18.70;72.00;;;;;;5154855;27;20383;-77
2022/07/26 00:12:08;;;;;;;3.63;3.17;;;18.60;72.20;;;;;;5153394;27;20054;-69
2022/07/26 00:14:34;;;;;;;3.22;2.92;;;18.70;72.50;;;;;;5154723;27;20106;-78
2022/07/26 00:17:00;;;;;;;4.15;3.17;;;18.70;72.60;;;;;;5154663;27;20451;-71
2022/07/26 00:19:26;;;;;;;4.53;3.95;;;18.60;72.90;;;;;;5154617;27;20376;-78
2022/07/26 00:22:32;;;;;;;6.82;3.45;;;18.70;73.30;;;;;;5154408;27;20086;-69
2022/07/26 00:24:38;;;;;;;3.58;3.10;;;18.70;72.50;;;;;;5154678;27;20062;-77
2022/07/26 00:27:04;;;;;;;4.70;3.33;;;18.70;72.80;;;;;;5154503;27;20069;-77
2022/07/26 00:29:30;;;;;;;3.35;3.05;;;18.60;73.30;;;;;;5154528;27;20554;-77
2022/07/26 00:31:56;;;;;;;3.28;2.88;;;18.60;73.40;;;;;;5153125;27;20384;-77
2022/07/26 00:34:21;;;;;;;3.95;3.30;;;18.60;73.30;;;;;;5154546;27;20026;-71
2022/07/26 00:36:47;;;;;;;4.22;3.70;;;18.50;72.90;;;;;;5156360;27;20023;-69
2022/07/26 00:39:13;;;;;;;4.78;3.40;;;18.60;73.00;;;;;;5158544;27;20023;-71
2022/07/26 00:41:38;;;;;;;5.53;3.33;;;18.50;74.30;;;;;;5092080;27;20029;-70
2022/07/26 00:44:04;;;;;;;4.75;3.03;;;18.50;75.30;;;;;;5053095;28;20021;-72
2022/07/26 00:46:30;;;;;;;4.13;3.38;;;18.50;75.80;;;;;;5051549;28;20054;-77
2022/07/26 00:48:56;;;;;;;3.70;3.40;;;18.40;76.50;;;;;;5051843;28;20104;-76
2022/07/26 00:51:23;;;;;;;3.30;3.00;;;18.40;77.60;;;;;;5052863;28;20094;-70
2022/07/26 00:53:49;;;;;;;4.38;3.30;;;18.30;78.70;;;;;;5089902;27;20419;-70
2022/07/26 00:56:16;;;;;;;4.22;3.72;;;18.20;78.40;;;;;;5158271;27;20090;-71
2022/07/26 00:58:42;;;;;;;3.65;3.35;;;18.20;78.10;;;;;;5156753;27;20027;-70
2022/07/26 01:01:08;;;;;;;4.10;3.80;;;18.10;79.20;;;;;;5158177;27;20015;-70
2022/07/26 01:03:34;;;;;;;5.30;3.22;;;18.00;78.90;;;;;;5156689;27;20088;-71
2022/07/26 01:06:00;;;;;;;3.40;3.15;;;18.00;80.50;;;;;;5158095;27;20030;-70
2022/07/26 01:08:26;;;;;;;5.03;3.60;;;18.00;81.30;;;;;;5157857;27;20035;-77
2022/07/26 01:10:52;;;;;;;3.95;3.58;;;17.90;81.80;;;;;;5156696;27;20053;-77
2022/07/26 01:13:19;;;;;;;4.53;4.13;;;17.90;82.20;;;;;;5156579;27;20022;-76
2022/07/26 01:15:45;;;;;;;4.32;3.85;;;17.70;83.30;;;;;;5156560;27;20113;-77
2022/07/26 01:18:11;;;;;;;4.35;3.13;;;17.70;83.70;;;;;;5157718;27;20091;-77
2022/07/26 01:20:37;;;;;;;3.92;3.58;;;17.70;83.60;;;;;;5157804;27;20022;-77
2022/07/26 01:23:02;;;;;;;3.78;3.47;;;17.70;84.40;;;;;;5157761;27;20054;-70
2022/07/26 01:25:34;;;;;;;5.82;3.70;;;17.60;85.40;;;;;;5156232;27;20023;-70
2022/07/26 01:27:59;;;;;;;4.32;3.83;;;17.60;86.10;;;;;;5157405;27;20175;-77
2022/07/26 01:30:26;;;;;;;4.88;3.75;;;17.50;85.40;;;;;;5157666;27;20101;-77
2022/07/26 01:32:51;;;;;;;3.58;3.28;;;17.60;85.10;;;;;;5112426;27;20033;-70
2022/07/26 01:35:17;;;;;;;3.70;3.30;;;17.50;87.20;;;;;;5051100;28;20028;-71
2022/07/26 01:37:42;;;;;;;5.50;3.60;;;17.40;86.90;;;;;;5052259;28;20390;-77
2022/07/26 01:40:09;;;;;;;4.72;3.63;;;17.50;88.30;;;;;;5052242;28;20505;-70
2022/07/26 01:42:35;;;;;;;4.43;3.67;;;17.40;89.60;;;;;;5052174;28;20489;-76
2022/07/26 01:45:01;;;;;;;5.22;4.00;;;17.40;90.20;;;;;;5050982;28;20028;-77
2022/07/26 01:47:26;;;;;;;3.70;3.40;;;17.40;90.60;;;;;;5050092;28;20033;-69
2022/07/26 01:49:52;;;;;;;6.88;3.72;;;17.40;90.40;;;;;;5051796;28;20058;-70
2022/07/26 01:52:18;;;;;;;3.95;3.65;;;17.30;90.90;;;;;;5050740;28;20031;-70
2022/07/26 01:54:43;;;;;;;4.18;3.60;;;17.30;91.00;;;;;;5051902;28;20063;-70
2022/07/26 01:57:09;;;;;;;4.57;3.88;;;17.30;91.40;;;;;;5051842;28;20466;-77
2022/07/26 01:59:35;;;;;;;4.80;3.78;;;17.20;92.20;;;;;;5051890;28;20025;-77
2022/07/26 02:02:01;;;;;;;4.22;3.60;;;17.20;92.30;;;;;;5051908;28;20029;-70
2022/07/26 02:07:10;;;;;;;4.95;3.67;;;17.10;93.90;;;;;;5051735;28;20055;-70
2022/07/26 02:09:36;;;;;;;6.32;3.83;;;17.10;93.30;;;;;;5051731;28;20466;-76
2022/07/26 02:12:02;;;;;;;12.05;4.68;;;17.10;93.70;;;;;;5051805;28;20029;-70
2022/07/26 02:14:28;;;;;;;4.15;3.83;;;17.20;93.40;;;;;;5051658;28;20021;-70
2022/07/26 02:16:58;;;;;;;4.18;3.70;;;17.20;93.70;;;;;;5051687;28;20081;-77
2022/07/26 02:19:25;;;;;;;3.92;3.63;;;17.20;93.40;;;;;;5051491;28;20024;-76
2022/07/26 02:21:51;;;;;;;4.15;3.75;;;17.20;92.30;;;;;;5051441;28;20044;-70
2022/07/26 02:24:17;;;;;;;4.13;3.72;;;17.20;90.80;;;;;;5051548;28;20021;-77
2022/07/26 02:26:42;;;;;;;4.20;3.70;;;17.30;91.50;;;;;;5050153;28;20044;-74
2022/07/26 02:29:08;;;;;;;8.82;4.15;;;17.30;90.60;;;;;;5051504;28;20022;-70
2022/07/26 02:31:34;;;;;;;4.03;3.67;;;17.30;89.60;;;;;;5051326;28;20082;-70
2022/07/26 02:33:59;;;;;;;4.28;3.85;;;17.40;89.70;;;;;;5050116;28;20074;-70
2022/07/26 02:36:25;;;;;;;4.25;3.85;;;17.40;88.80;;;;;;5051394;28;20036;-77
2022/07/26 02:38:50;;;;;;;7.70;3.85;;;17.40;90.00;;;;;;5050002;28;20017;-70
2022/07/26 02:41:16;;;;;;;4.55;3.58;;;17.50;90.20;;;;;;5051146;28;20470;-76
2022/07/26 02:43:42;;;;;;;5.30;3.97;;;17.50;92.00;;;;;;5051261;28;20096;-71
2022/07/26 02:46:07;;;;;;;4.32;3.85;;;17.50;93.60;;;;;;5049854;28;20033;-74
2022/07/26 02:48:33;;;;;;;4.25;3.85;;;17.40;94.30;;;;;;5050982;28;20187;-70
2022/07/26 02:50:59;;;;;;;4.47;4.15;;;17.40;95.10;;;;;;5049858;28;20120;-77
2022/07/26 02:53:25;;;;;;;4.18;3.80;;;17.40;95.90;;;;;;5049673;28;20024;-77
2022/07/26 02:55:50;;;;;;;7.28;4.40;;;17.40;95.90;;;;;;5051000;28;20102;-71
2022/07/26 02:58:16;;;;;;;4.97;4.15;;;17.40;94.70;;;;;;5050804;28;20017;-77
2022/07/26 03:00:42;;;;;;;10.73;4.78;;;17.40;94.30;;;;;;5049966;28;20493;-70
2022/07/26 03:03:07;;;;;;;5.13;3.90;;;17.40;95.10;;;;;;5050841;27;20056;-69
2022/07/26 03:05:33;;;;;;;8.52;4.00;;;17.30;96.40;;;;;;5050819;28;20108;-70
2022/07/26 03:07:58;;;;;;;4.43;4.03;;;17.30;97.40;;;;;;5049405;28;20454;-76
2022/07/26 03:10:24;;;;;;;5.30;4.45;;;17.30;97.40;;;;;;5050857;28;20017;-76
2022/07/26 03:12:50;;;;;;;4.05;3.55;;;17.30;98.00;;;;;;5050933;28;20025;-71
2022/07/26 03:15:15;;;;;;;4.88;3.95;;;17.20;98.70;;;;;;5050668;28;20025;-77
2022/07/26 03:17:41;;;;;;;7.47;5.10;;;17.30;99.50;;;;;;5050782;28;20025;-76
2022/07/26 03:20:08;;;;;;;10.20;4.70;;;17.30;99.90;;;;;;5050659;28;20427;-71
2022/07/26 03:22:33;;;;;;;6.97;4.18;;;17.30;99.90;;;;;;5050618;28;20060;-76
2022/07/26 03:24:59;;;;;;;5.72;3.80;;;17.30;99.90;;;;;;5049285;28;20025;-71
2022/07/26 03:27:25;;;;;;;6.53;4.63;;;17.30;99.90;;;;;;5050404;28;20029;-77
2022/07/26 03:29:51;;;;;;;4.55;4.10;;;17.40;99.10;;;;;;5050525;28;20029;-77
2022/07/26 03:32:17;;;;;;;4.95;4.38;;;17.40;98.90;;;;;;5050519;28;20040;-77
2022/07/26 03:34:42;;;;;;;5.93;4.65;;;17.50;99.20;;;;;;5050413;28;20028;-77
2022/07/26 03:37:08;;;;;;;7.78;4.03;;;17.50;99.90;;;;;;5049161;28;20070;-77
2022/07/26 03:39:34;;;;;;;9.48;4.00;;;17.60;98.50;;;;;;5048972;28;20032;-77
2022/07/26 03:41:59;;;;;;;6.00;4.45;;;17.70;99.10;;;;;;5050426;28;20085;-70
2022/07/26 03:44:25;;;;;;;5.82;4.22;;;17.80;98.00;;;;;;5049055;28;20052;-77
2022/07/26 03:46:50;;;;;;;4.43;3.83;;;17.90;96.20;;;;;;5050154;28;20036;-77
2022/07/26 03:49:16;;;;;;;5.90;3.88;;;18.10;96.50;;;;;;5050073;28;20025;-77
2022/07/26 03:51:42;;;;;;;4.53;4.10;;;18.20;97.00;;;;;;5048991;28;20389;-70
2022/07/26 03:54:07;;;;;;;15.05;6.25;;;18.20;96.50;;;;;;5048882;28;20017;-71
2022/07/26 03:56:33;;;;;;;9.45;4.20;;;18.30;98.00;;;;;;5050032;28;20052;-70
2022/07/26 03:59:02;;;;;;;13.00;5.05;;;18.30;99.40;;;;;;5048888;28;20498;-77
2022/07/26 04:01:28;;;;;;;7.13;4.63;;;18.30;98.00;;;;;;5049867;28;20108;-70
2022/07/26 04:03:54;;;;;;;4.82;3.97;;;18.50;97.30;;;;;;5050139;28;20024;-70
2022/07/26 04:06:20;;;;;;;6.28;4.57;;;18.60;96.50;;;;;;5049919;28;20025;-70
2022/07/26 04:08:46;;;;;;;5.85;4.00;;;18.70;97.40;;;;;;5049939;28;20033;-76
2022/07/26 04:11:11;;;;;;;5.55;3.80;;;18.90;95.30;;;;;;5051980;28;20486;-70
2022/07/26 04:13:38;;;;;;;7.18;4.93;;;19.10;95.40;;;;;;5056697;28;20036;-71
2022/07/26 04:16:04;;;;;;;5.28;3.90;;;19.30;93.10;;;;;;5055253;28;20485;-70
2022/07/26 04:18:29;;;;;;;9.10;5.68;;;19.40;91.90;;;;;;5056574;28;20028;-71
2022/07/26 04:20:55;;;;;;;5.45;4.50;;;19.60;91.60;;;;;;5056404;28;20032;-70
2022/07/26 04:23:21;;;;;;;7.00;4.75;;;19.80;93.00;;;;;;5056659;28;20435;-77
2022/07/26 04:25:47;;;;;;;5.93;4.00;;;19.90;93.40;;;;;;5055186;28;20439;-77
2022/07/26 04:28:13;;;;;;;6.18;4.13;;;20.00;95.10;;;;;;5056319;28;20033;-72
2022/07/26 04:30:39;;;;;;;4.72;4.20;;;20.10;97.00;;;;;;5056317;28;20025;-77
2022/07/26 04:33:05;;;;;;;5.65;4.72;;;20.10;99.90;;;;;;5056400;28;20029;-70
2022/07/26 04:35:31;;;;;;;4.72;4.32;;;20.20;99.90;;;;;;5054950;28;20024;-77
2022/07/26 04:37:57;;;;;;;7.05;4.18;;;20.20;99.90;;;;;;5056256;28;20398;-70
2022/07/26 04:40:23;;;;;;;5.35;4.25;;;20.20;99.90;;;;;;5056165;28;20021;-76
2022/07/26 04:42:50;;;;;;;5.25;4.38;;;20.20;99.90;;;;;;5055127;28;20032;-70
2022/07/26 04:45:17;;;;;;;4.63;4.28;;;20.20;99.90;;;;;;5056134;28;20474;-71
2022/07/26 04:47:44;;;;;;;5.28;4.13;;;20.20;99.90;;;;;;5054891;28;20512;-70
2022/07/26 04:50:11;;;;;;;5.40;4.85;;;20.30;99.90;;;;;;5056203;28;20035;-70
2022/07/26 04:52:37;;;;;;;7.30;5.00;;;20.20;99.90;;;;;;5056143;28;20070;-70
2022/07/26 04:55:04;;;;;;;9.27;4.57;;;20.20;99.90;;;;;;5054802;28;20416;-77
2022/07/26 04:57:30;;;;;;;7.65;4.63;;;20.30;99.90;;;;;;5055838;28;20056;-77
2022/07/26 04:59:56;;;;;;;4.78;4.38;;;20.30;99.90;;;;;;5055938;28;20505;-71
2022/07/26 05:02:21;;;;;;;10.55;5.75;;;20.30;99.90;;;;;;5055971;28;20017;-70
2022/07/26 05:04:47;;;;;;;10.90;5.90;;;20.40;99.90;;;;;;5054770;28;20066;-71
2022/07/26 05:07:13;;;;;;;9.30;6.10;;;20.40;99.90;;;;;;5054459;28;20474;-71
2022/07/26 05:09:38;;;;;;;8.88;6.00;;;20.50;99.90;;;;;;5055960;28;20386;-72
2022/07/26 05:12:04;;;;;;;10.80;5.35;;;20.50;99.90;;;;;;5055733;28;20837;-77
2022/07/26 05:14:30;;;;;;;9.57;7.55;;;20.60;99.90;;;;;;5055947;28;20033;-71
2022/07/26 05:16:55;;;;;;;10.52;6.55;;;20.70;99.90;;;;;;5054442;28;20028;-77
2022/07/26 05:19:21;;;;;;;12.77;7.82;;;20.70;99.90;;;;;;5055661;28;20100;-71
2022/07/26 05:21:47;;;;;;;13.05;8.45;;;20.80;99.90;;;;;;5055562;28;20139;-77
2022/07/26 05:24:12;;;;;;;11.68;7.63;;;21.00;99.90;;;;;;5051795;28;20024;-77
2022/07/26 05:26:38;;;;;;;8.35;6.13;;;21.10;99.90;;;;;;5052586;27;20040;-71
2022/07/26 05:29:04;;;;;;;9.35;6.38;;;21.20;99.90;;;;;;5052424;28;20024;-71
2022/07/26 05:31:29;;;;;;;11.25;7.28;;;21.40;99.90;;;;;;5052222;28;20070;-77
2022/07/26 05:33:55;;;;;;;11.20;7.32;;;21.50;99.90;;;;;;5052160;28;20471;-77
2022/07/26 05:36:21;;;;;;;8.73;6.18;;;21.60;99.90;;;;;;5048032;27;20018;-70
2022/07/26 05:38:49;;;;;;;6.70;5.63;;;21.70;99.90;;;;;;5040299;28;20026;-77
2022/07/26 05:41:15;;;;;;;6.57;5.90;;;21.70;99.90;;;;;;5042804;28;20029;-70
2022/07/26 05:43:43;;;;;;;8.77;5.18;;;21.90;99.90;;;;;;5034237;28;20070;-71
2022/07/26 05:46:12;;;;;;;7.30;5.00;;;21.90;99.90;;;;;;5032014;28;20025;-70
2022/07/26 05:48:39;;;;;;;6.22;5.63;;;22.10;99.90;;;;;;5030770;28;20030;-71
2022/07/26 05:51:05;;;;;;;11.98;6.57;;;22.20;99.90;;;;;;5031846;28;20026;-70
2022/07/26 05:53:30;;;;;;;10.30;6.20;;;22.30;99.90;;;;;;5035694;27;20021;-72
2022/07/26 05:55:56;;;;;;;10.13;6.13;;;22.60;99.90;;;;;;5031817;28;20475;-70
2022/07/26 05:58:22;;;;;;;7.68;6.05;;;22.80;99.90;;;;;;5049708;27;20061;-72
2022/07/26 06:00:47;;;;;;;8.95;6.55;;;22.80;91.80;;;;;;5098664;27;20108;-70
2022/07/26 06:03:22;;;;;;;15.13;6.43;;;22.90;89.30;;;;;;5106851;27;20015;-71
2022/07/26 06:05:49;;;;;;;7.40;6.00;;;22.90;89.50;;;;;;5095034;27;20098;-70
2022/07/26 06:08:16;;;;;;;6.68;5.95;;;23.00;86.80;;;;;;5100886;27;20506;-70
2022/07/26 06:10:42;;;;;;;9.80;5.88;;;23.00;83.70;;;;;;5106659;27;20478;-77
2022/07/26 06:13:07;;;;;;;7.85;5.82;;;23.00;75.60;;;;;;5090364;27;20018;-78
2022/07/26 06:15:33;;;;;;;8.27;5.97;;;22.90;71.00;;;;;;5119429;27;20037;-70
2022/07/26 06:17:59;;;;;;;6.75;6.05;;;23.00;69.80;;;;;;5039593;27;20116;-70
2022/07/26 06:20:24;;;;;;;6.13;5.53;;;23.10;70.00;;;;;;5125008;27;20368;-77
2022/07/26 06:22:51;;;;;;;6.38;5.78;;;23.10;70.20;;;;;;5034040;27;20494;-76
2022/07/26 06:25:17;;;;;;;6.00;5.50;;;23.20;71.70;;;;;;5031595;28;20108;-77
2022/07/26 06:27:43;;;;;;;6.65;5.88;;;23.20;70.00;;;;;;5077319;27;20121;-77
2022/07/26 06:30:09;;;;;;;8.00;6.53;;;23.20;67.70;;;;;;5095511;27;20021;-71
2022/07/26 06:32:35;;;;;;;11.98;6.22;;;23.20;68.50;;;;;;5072365;27;20030;-70
2022/07/26 06:35:01;;;;;;;7.60;6.28;;;23.20;68.90;;;;;;5057457;27;20024;-71
2022/07/26 06:37:26;;;;;;;8.65;7.13;;;23.20;68.10;;;;;;5036966;27;20414;-71
2022/07/26 06:39:52;;;;;;;13.93;7.28;;;23.30;69.70;;;;;;5087643;27;20031;-72
2022/07/26 06:42:18;;;;;;;10.15;7.82;;;23.40;69.40;;;;;;5096740;27;20026;-70
2022/07/26 06:44:43;;;;;;;11.02;8.35;;;23.50;70.80;;;;;;5088604;27;20018;-71
2022/07/26 06:47:09;;;;;;;11.18;7.72;;;23.50;69.60;;;;;;5100850;27;20033;-70
2022/07/26 06:49:35;;;;;;;12.57;7.40;;;23.50;70.10;;;;;;5104154;27;20019;-71
2022/07/26 06:52:00;;;;;;;12.45;8.10;;;23.60;69.80;;;;;;5084312;27;20478;-70
2022/07/26 06:54:26;;;;;;;11.55;8.18;;;23.80;71.20;;;;;;5095920;27;20026;-71
2022/07/26 06:56:52;;;;;;;12.20;9.30;;;23.80;70.10;;;;;;5108840;27;20093;-72
2022/07/26 06:59:17;;;;;;;11.88;8.70;;;24.00;73.20;;;;;;5148505;27;20067;-72
2022/07/26 07:01:43;;;;;;;13.73;8.50;;;24.10;72.70;;;;;;5058229;27;20121;-70
2022/07/26 07:04:09;;;;;;;11.35;7.95;;;24.10;70.60;;;;;;5029436;28;20091;-72
2022/07/26 07:06:34;;;;;;;12.27;8.02;;;24.10;71.50;;;;;;5028771;28;20025;-70
2022/07/26 07:09:00;;;;;;;12.07;8.30;;;24.20;72.40;;;;;;5029566;28;20083;-70
2022/07/26 07:11:26;;;;;;;11.13;8.45;;;24.30;72.40;;;;;;5029823;28;20026;-70
2022/07/26 07:13:51;;;;;;;10.48;8.88;;;24.30;72.20;;;;;;5028708;28;20056;-72
2022/07/26 07:16:17;;;;;;;12.98;10.25;;;24.30;72.30;;;;;;5028920;28;20034;-71
2022/07/26 07:18:43;;;;;;;21.42;9.75;;;24.30;70.20;;;;;;5030569;28;20029;-70
2022/07/26 07:21:08;;;;;;;11.40;9.63;;;24.30;70.00;;;;;;5031159;28;20112;-70
2022/07/26 07:23:34;;;;;;;12.57;9.70;;;24.20;70.50;;;;;;5029765;28;20053;-70
2022/07/26 07:26:00;;;;;;;13.77;10.00;;;24.20;70.20;;;;;;5030339;28;20049;-70
2022/07/26 07:28:26;;;;;;;11.88;9.43;;;24.10;70.60;;;;;;5029128;28;20030;-72
2022/07/26 07:30:51;;;;;;;11.13;9.80;;;24.30;72.40;;;;;;5030335;28;20025;-71
2022/07/26 07:33:17;;;;;;;11.18;9.75;;;24.30;73.00;;;;;;5031907;28;20070;-70
2022/07/26 07:35:44;;;;;;;13.48;10.77;;;24.40;71.50;;;;;;5028888;28;20021;-70
2022/07/26 07:38:09;;;;;;;14.68;10.20;;;24.40;71.70;;;;;;5062991;27;20048;-70
2022/07/26 07:40:35;;;;;;;11.95;10.75;;;24.50;73.20;;;;;;5155078;27;20475;-71
2022/07/26 07:43:01;;;;;;;14.43;10.00;;;24.80;72.80;;;;;;5080087;27;20025;-77
2022/07/26 07:45:27;;;;;;;11.05;9.85;;;25.00;72.30;;;;;;5097681;27;20021;-71
2022/07/26 07:47:53;;;;;;;15.30;10.80;;;25.00;71.90;;;;;;5092932;27;20035;-71
2022/07/26 07:50:19;;;;;;;14.57;10.30;;;24.80;71.80;;;;;;5107889;27;20029;-71
2022/07/26 07:52:44;;;;;;;12.02;10.13;;;25.30;72.10;;;;;;5052044;27;20100;-70
2022/07/26 07:55:10;;;;;;;15.07;10.90;;;25.30;71.60;;;;;;5063605;27;20479;-71
2022/07/26 07:57:36;;;;;;;11.80;9.80;;;25.10;72.50;;;;;;5028641;28;20029;-70
2022/07/26 08:00:04;;;;;;;11.05;9.00;;;25.30;73.30;;;;;;5030166;28;20033;-76
2022/07/26 08:02:29;;;;;;;9.98;8.85;;;25.00;72.50;;;;;;5028330;28;20026;-75
2022/07/26 08:04:55;;;;;;;11.07;9.93;;;24.70;74.20;;;;;;5030097;28;20022;-77
2022/07/26 08:07:21;;;;;;;11.40;10.27;;;24.60;76.70;;;;;;5029843;28;20030;-70
2022/07/26 08:09:47;;;;;;;10.75;9.35;;;24.60;79.30;;;;;;5028823;28;20069;-76
2022/07/26 08:12:12;;;;;;;12.65;10.38;;;24.20;77.70;;;;;;5030189;28;20029;-71
2022/07/26 08:14:38;;;;;;;11.40;9.80;;;24.20;79.60;;;;;;5029861;28;20478;-77
2022/07/26 08:17:04;;;;;;;11.70;10.35;;;24.40;81.00;;;;;;5029884;28;20483;-77
2022/07/26 08:19:29;;;;;;;11.20;9.70;;;24.40;78.10;;;;;;5029309;28;20022;-76
2022/07/26 08:21:55;;;;;;;11.98;10.77;;;24.40;76.10;;;;;;5030081;28;20086;-70
2022/07/26 08:24:21;;;;;;;10.95;9.82;;;24.70;76.70;;;;;;5029743;28;20391;-77
2022/07/26 08:26:46;;;;;;;11.68;10.18;;;24.50;76.80;;;;;;5029516;28;20026;-70
2022/07/26 08:29:12;;;;;;;12.52;11.20;;;24.70;75.20;;;;;;5029874;28;20129;-71
2022/07/26 08:31:38;;;;;;;15.40;11.10;;;24.80;76.00;;;;;;5028389;28;20615;-70
2022/07/26 08:34:03;;;;;;;12.30;9.93;;;24.70;74.20;;;;;;5028979;28;20048;-77
2022/07/26 08:36:29;;;;;;;14.68;10.95;;;24.50;75.90;;;;;;5029407;28;20505;-77
2022/07/26 08:38:55;;;;;;;11.32;9.68;;;24.40;77.30;;;;;;5028123;28;20018;-77
2022/07/26 08:41:22;;;;;;;10.27;9.27;;;24.50;78.20;;;;;;5035248;28;20056;-77
2022/07/26 08:43:47;;;;;;;13.40;9.95;;;24.40;78.00;;;;;;5049376;28;20017;-77
2022/07/26 08:46:13;;;;;;;11.57;9.75;;;24.50;78.00;;;;;;5033934;28;20026;-77
2022/07/26 08:48:39;;;;;;;11.07;10.00;;;24.50;77.90;;;;;;5028806;28;20034;-77
2022/07/26 08:51:09;;;;;;;10.48;9.48;;;24.30;76.40;;;;;;5029398;28;20462;-77
2022/07/26 08:53:38;;;;;;;10.85;9.77;;;23.80;77.30;;;;;;5035545;28;20040;-76
2022/07/26 08:56:04;;;;;;;10.70;9.60;;;23.60;81.20;;;;;;5029247;28;20479;-71
2022/07/26 08:58:35;;;;;;;15.02;10.40;;;23.80;81.40;;;;;;5029091;28;20052;-71
2022/07/26 09:01:12;;;;;;;13.98;10.65;;;23.60;81.90;;;;;;5038846;28;20025;-70
2022/07/26 09:03:39;;;;;;;10.75;9.65;;;23.50;86.10;;;;;;5052041;28;20025;-70
2022/07/26 09:06:21;;;;;;;11.30;9.95;;;23.60;85.20;;;;;;5051349;28;20033;-77
2022/07/26 09:08:50;;;;;;;11.27;10.27;;;23.50;84.90;;;;;;5052418;28;20033;-77
2022/07/26 09:11:30;;;;;;;13.88;10.38;;;23.40;87.90;;;;;;5052362;28;20028;-77
2022/07/26 09:14:01;;;;;;;12.98;11.57;;;23.10;90.30;;;;;;5052443;28;20100;-70
2022/07/26 09:16:29;;;;;;;14.13;12.65;;;23.00;94.60;;;;;;5051992;28;20490;-70
2022/07/26 09:19:14;;;;;;;13.52;12.23;;;22.80;94.80;;;;;;5050646;27;20044;-70
2022/07/26 09:21:40;;;;;;;14.98;13.55;;;22.60;99.90;;;;;;5052081;28;20482;-70
2022/07/26 09:24:06;;;;;;;14.00;12.60;;;22.50;99.90;;;;;;5052266;28;20029;-70
2022/07/26 09:26:31;;;;;;;15.95;14.18;;;22.50;99.90;;;;;;5052057;28;20021;-70
2022/07/26 09:29:07;;;;;;;15.68;14.13;;;22.20;99.90;;;;;;5050898;28;20085;-70
2022/07/26 09:31:34;;;;;;;16.15;14.52;;;21.90;99.90;;;;;;5050186;27;20089;-70
2022/07/26 09:34:00;;;;;;;15.88;14.27;;;21.80;99.90;;;;;;5052082;28;20051;-71
2022/07/26 09:36:27;;;;;;;16.90;14.18;;;21.70;99.90;;;;;;5050684;28;20073;-70
2022/07/26 09:38:56;;;;;;;15.75;14.25;;;21.50;99.90;;;;;;5058704;27;20040;-70
2022/07/26 09:41:32;;;;;;;17.02;14.20;;;21.60;99.90;;;;;;5096178;27;20027;-70
2022/07/26 09:44:00;;;;;;;17.95;16.05;;;21.20;99.90;;;;;;5046482;27;20113;-71
2022/07/26 09:46:28;;;;;;;21.75;14.85;;;21.00;99.90;;;;;;5026749;28;20033;-71
2022/07/26 09:48:55;;;;;;;17.00;15.15;;;20.80;99.90;;;;;;5028712;28;20120;-70
2022/07/26 09:51:43;;;;;;;19.50;15.18;;;20.70;99.90;;;;;;5028645;28;20504;-70
2022/07/26 09:54:10;;;;;;;16.65;14.93;;;20.60;99.90;;;;;;5081362;27;20108;-70
2022/07/26 09:56:51;;;;;;;17.33;15.50;;;20.60;99.90;;;;;;5031830;28;20391;-70
2022/07/26 09:59:19;;;;;;;16.55;14.52;;;20.70;99.90;;;;;;5038838;28;20052;-70
2022/07/26 10:01:46;;;;;;;18.08;14.52;;;20.60;99.90;;;;;;5051237;28;20017;-69
2022/07/26 10:04:12;;;;;;;17.98;15.55;;;20.50;99.90;;;;;;5041521;28;20530;-69
2022/07/26 10:06:39;;;;;;;21.23;16.33;;;20.30;99.90;;;;;;5030916;28;20029;-69
2022/07/26 10:09:05;;;;;;;22.05;15.13;;;20.20;99.90;;;;;;5029368;28;20034;-69
2022/07/26 10:11:44;;;;;;;20.13;16.00;;;20.20;99.90;;;;;;5030093;28;20021;-69
2022/07/26 10:14:33;;;;;;;17.23;15.20;;;20.20;99.90;;;;;;5031828;28;20101;-69
2022/07/26 10:17:18;;;;;;;19.80;17.17;;;20.10;99.90;;;;;;5030961;28;20036;-69
2022/07/26 10:19:44;;;;;;;18.75;16.85;;;20.10;99.90;;;;;;5030186;28;20053;-69
2022/07/26 10:22:26;;;;;;;19.23;16.15;;;20.00;99.90;;;;;;5031492;28;20096;-76
2022/07/26 10:24:53;;;;;;;17.80;14.60;;;20.10;99.90;;;;;;5031605;28;20116;-76
2022/07/26 10:27:41;;;;;;;15.60;13.52;;;20.20;99.90;;;;;;5031201;28;20029;-77
2022/07/26 10:30:18;;;;;;;16.40;14.45;;;20.30;99.90;;;;;;5042811;28;20028;-69
2022/07/26 10:32:53;;;;;;;15.48;13.88;;;20.20;99.90;;;;;;5037451;28;20386;-77
2022/07/26 10:35:39;;;;;;;14.95;12.93;;;20.10;99.90;;;;;;5049003;28;20104;-78
2022/07/26 10:38:20;;;;;;;12.57;11.30;;;20.20;99.90;;;;;;5131133;27;20060;-78
2022/07/26 10:41:05;;;;;;;13.63;10.93;;;20.20;99.90;;;;;;5126478;27;20064;-71
2022/07/26 10:43:32;;;;;;;14.02;12.57;;;20.20;99.90;;;;;;5049502;28;20017;-71
2022/07/26 10:46:16;;;;;;;13.55;11.70;;;20.20;99.90;;;;;;5049923;28;20093;-70
2022/07/26 10:48:54;;;;;;;11.35;10.25;;;20.20;99.90;;;;;;5050798;28;20033;-78
2022/07/26 10:51:30;;;;;;;13.40;12.10;;;20.30;99.90;;;;;;5049694;28;20025;-70
2022/07/26 10:54:03;;;;;;;12.05;10.77;;;20.30;99.90;;;;;;5048877;27;20027;-69
2022/07/26 10:56:29;;;;;;;12.55;9.45;;;20.30;99.90;;;;;;5050234;28;20056;-69
2022/07/26 10:58:55;;;;;;;11.70;10.30;;;20.40;99.90;;;;;;5050399;28;20032;-77
2022/07/26 11:01:21;;;;;;;12.38;10.63;;;20.40;99.90;;;;;;5050190;28;20029;-69
2022/07/26 11:03:47;;;;;;;9.82;8.82;;;20.50;99.90;;;;;;5050275;28;20029;-77
2022/07/26 11:06:18;;;;;;;10.77;9.77;;;20.60;99.90;;;;;;5050199;28;20100;-69
2022/07/26 11:08:46;;;;;;;10.68;9.23;;;20.70;99.90;;;;;;5049966;28;20032;-69
2022/07/26 11:11:12;;;;;;;9.10;8.25;;;20.70;99.90;;;;;;5050084;28;20112;-78
2022/07/26 11:13:39;;;;;;;9.55;8.55;;;20.80;99.90;;;;;;5047667;28;20052;-77
2022/07/26 11:16:07;;;;;;;9.52;8.55;;;20.70;99.90;;;;;;5048006;28;20040;-69
2022/07/26 11:18:37;;;;;;;9.77;8.77;;;20.70;99.90;;;;;;5050807;28;20024;-78
2022/07/26 11:21:12;;;;;;;10.70;9.63;;;20.60;99.90;;;;;;5049504;28;20045;-78
2022/07/26 11:23:50;;;;;;;9.82;8.93;;;20.50;99.90;;;;;;5050674;28;20029;-70
2022/07/26 11:26:24;;;;;;;10.35;9.35;;;20.50;99.90;;;;;;5050416;28;20049;-78
2022/07/26 11:29:02;;;;;;;10.20;9.20;;;20.60;99.90;;;;;;5049523;28;20072;-79
2022/07/26 11:31:37;;;;;;;10.15;9.18;;;20.60;99.90;;;;;;5048988;28;20018;-70
2022/07/26 11:34:05;;;;;;;10.43;9.05;;;20.60;99.90;;;;;;5047277;28;20546;-79
2022/07/26 11:36:42;;;;;;;9.82;8.13;;;20.60;99.90;;;;;;5049200;28;20025;-79
2022/07/26 11:39:20;;;;;;;9.82;8.93;;;20.60;99.90;;;;;;5050518;28;20035;-78
2022/07/26 11:41:46;;;;;;;8.98;7.57;;;20.50;99.90;;;;;;5049096;28;20170;-70
2022/07/26 11:44:17;;;;;;;8.35;6.97;;;20.30;99.90;;;;;;5048173;28;20051;-80
2022/07/26 11:46:48;;;;;;;8.15;7.28;;;20.20;99.90;;;;;;5048938;28;20025;-79
2022/07/26 11:49:22;;;;;;;10.13;6.78;;;20.00;99.90;;;;;;5049678;28;20482;-70
2022/07/26 11:51:57;;;;;;;7.03;6.32;;;19.80;99.90;;;;;;5050177;28;20037;-71
2022/07/26 11:54:28;;;;;;;7.65;6.20;;;19.50;99.90;;;;;;5048916;28;20032;-70
2022/07/26 11:56:56;;;;;;;9.10;6.47;;;19.40;99.90;;;;;;5050084;28;20021;-71
2022/07/26 11:59:33;;;;;;;8.20;7.40;;;19.20;99.90;;;;;;5050377;28;20027;-78
2022/07/26 12:02:01;;;;;;;8.48;6.95;;;18.90;99.90;;;;;;5049052;28;20149;-71
2022/07/26 12:04:32;;;;;;;8.88;7.80;;;18.90;99.90;;;;;;5050349;28;20028;-70
2022/07/26 12:07:00;;;;;;;8.60;7.78;;;18.80;99.90;;;;;;5048627;28;20029;-72
2022/07/26 12:09:34;;;;;;;9.57;7.82;;;18.80;99.90;;;;;;5050186;28;20060;-79
2022/07/26 12:12:02;;;;;;;10.07;7.43;;;18.70;99.90;;;;;;5050190;28;20059;-70
2022/07/26 12:14:33;;;;;;;8.75;7.85;;;18.60;99.90;;;;;;5048985;28;20367;-79
2022/07/26 12:17:18;;;;;;;8.13;7.30;;;18.50;99.90;;;;;;5048941;28;20033;-70
2022/07/26 12:19:45;;;;;;;7.43;6.72;;;18.50;99.90;;;;;;5050321;28;20027;-70
2022/07/26 12:22:13;;;;;;;7.70;6.90;;;18.40;99.90;;;;;;5050015;28;20124;-70
2022/07/26 12:24:39;;;;;;;7.43;6.68;;;18.30;99.90;;;;;;5049642;28;20045;-79
2022/07/26 12:27:10;;;;;;;6.75;6.13;;;18.30;99.90;;;;;;5048767;28;20060;-78
2022/07/26 12:29:40;;;;;;;7.47;6.73;;;18.40;99.90;;;;;;5049487;28;20486;-79
2022/07/26 12:32:10;;;;;;;6.97;6.30;;;18.40;99.90;;;;;;5051033;28;20025;-72
2022/07/26 12:34:37;;;;;;;8.55;7.72;;;18.50;99.90;;;;;;5052980;28;20070;-71
2022/07/26 12:37:16;;;;;;;8.48;7.43;;;18.40;99.90;;;;;;5053608;27;20032;-70
2022/07/26 12:40:07;;;;;;;8.65;7.68;;;18.50;99.90;;;;;;5054533;28;20021;-70
2022/07/26 12:42:40;;;;;;;10.02;8.93;;;18.40;99.90;;;;;;5037736;28;20020;-79
2022/07/26 12:45:11;;;;;;;10.38;8.98;;;18.50;99.90;;;;;;5055503;28;20025;-79
2022/07/26 12:47:40;;;;;;;10.88;9.73;;;18.50;99.90;;;;;;5054293;28;20037;-79